Time;durP1;ratioP1;P1;durP2;ratioP2;P2;SDS_P1;SDS_P2;PMS_P1;PMS_P2;Temp;Humidity;BMP_temperature;BMP_pressure;BME280_temperature;BME280_humidity;BME280_pressure;Samples;Min_cycle;Max_cycle;Signal;HPM_P1;HPM_P2
2021/01/30 00:00:29;;;;;;;5.57;2.75;;;11.70;67.30;;;;;;2121727;27;20106;-61
2021/01/30 00:01:53;;;;;;;5.55;3.20;;;11.70;67.30;;;;;;2128730;27;20076;-61
2021/01/30 00:03:15;;;;;;;3.90;2.65;;;11.70;67.40;;;;;;2119530;27;20028;-60
2021/01/30 00:04:38;;;;;;;6.53;2.85;;;11.70;67.40;;;;;;2119030;27;20027;-61
2021/01/30 00:05:59;;;;;;;4.85;3.00;;;11.70;67.40;;;;;;2128933;27;20102;-61
2021/01/30 00:07:20;;;;;;;6.35;3.00;;;11.60;67.40;;;;;;2121040;27;20106;-61
2021/01/30 00:08:42;;;;;;;5.07;2.72;;;11.60;67.40;;;;;;2124016;27;20485;-60
2021/01/30 00:10:05;;;;;;;5.78;2.90;;;11.60;67.40;;;;;;2115222;27;20084;-60
2021/01/30 00:11:25;;;;;;;5.53;3.15;;;11.70;67.40;;;;;;2125729;27;20055;-60
2021/01/30 00:12:47;;;;;;;5.35;2.88;;;11.60;67.40;;;;;;2123828;27;20035;-60
2021/01/30 00:14:08;;;;;;;4.50;2.90;;;11.60;67.40;;;;;;2114784;27;20035;-60
2021/01/30 00:15:29;;;;;;;5.00;2.72;;;11.60;67.50;;;;;;2123313;27;20358;-60
2021/01/30 00:16:50;;;;;;;7.38;3.35;;;11.60;67.50;;;;;;2121305;27;20102;-60
2021/01/30 00:18:11;;;;;;;7.32;3.47;;;11.60;68.30;;;;;;2116754;27;20023;-60
2021/01/30 00:19:33;;;;;;;4.57;2.65;;;11.60;68.40;;;;;;2127723;27;20033;-60
2021/01/30 00:20:53;;;;;;;7.45;3.38;;;11.60;67.70;;;;;;2130057;27;20410;-60
2021/01/30 00:22:18;;;;;;;6.65;3.00;;;11.60;67.70;;;;;;2117354;27;20092;-59
2021/01/30 00:23:38;;;;;;;5.32;2.85;;;11.60;67.80;;;;;;2124121;27;20019;-60
2021/01/30 00:24:59;;;;;;;6.32;3.20;;;11.60;67.80;;;;;;2114982;28;20474;-60
2021/01/30 00:26:20;;;;;;;5.85;2.90;;;11.60;67.80;;;;;;2116964;27;20114;-60
2021/01/30 00:27:41;;;;;;;6.68;3.10;;;11.60;67.90;;;;;;2121237;27;20027;-59
2021/01/30 00:29:02;;;;;;;8.55;3.42;;;11.60;67.90;;;;;;2114634;27;20479;-59
2021/01/30 00:30:25;;;;;;;6.25;3.15;;;11.60;67.90;;;;;;2122032;27;20486;-61
2021/01/30 00:31:46;;;;;;;5.20;3.20;;;11.60;67.90;;;;;;2126670;27;20022;-59
2021/01/30 00:33:07;;;;;;;5.55;3.00;;;11.60;67.90;;;;;;2128910;27;20087;-61
2021/01/30 00:34:30;;;;;;;7.75;2.97;;;11.60;67.90;;;;;;2112840;28;20027;-60
2021/01/30 00:35:51;;;;;;;6.45;3.25;;;11.60;67.90;;;;;;2117285;27;20023;-60
2021/01/30 00:37:24;;;;;;;5.05;3.45;;;11.60;67.90;;;;;;2124420;27;20031;-60
2021/01/30 00:38:45;;;;;;;5.35;3.20;;;11.60;67.90;;;;;;2124088;27;20031;-60
2021/01/30 00:40:07;;;;;;;4.28;3.20;;;11.60;67.90;;;;;;2115901;27;20028;-60
2021/01/30 00:41:28;;;;;;;5.40;3.42;;;11.60;68.00;;;;;;2125898;27;20491;-60
2021/01/30 00:42:50;;;;;;;8.65;3.47;;;11.60;68.00;;;;;;2123843;27;20031;-60
2021/01/30 00:44:12;;;;;;;7.10;3.83;;;11.60;68.10;;;;;;2117222;27;20015;-60
2021/01/30 00:45:33;;;;;;;4.70;3.15;;;11.50;68.00;;;;;;2121991;27;20030;-60
2021/01/30 00:46:53;;;;;;;7.22;3.72;;;11.50;68.10;;;;;;2122005;28;20027;-60
2021/01/30 00:48:14;;;;;;;5.68;3.55;;;11.50;68.10;;;;;;2115903;28;20241;-60
2021/01/30 00:49:36;;;;;;;6.68;3.78;;;11.50;68.30;;;;;;2126870;27;20038;-60
2021/01/30 00:50:57;;;;;;;6.70;3.50;;;11.50;68.40;;;;;;2122293;27;20091;-60
2021/01/30 00:52:19;;;;;;;6.38;3.63;;;11.50;68.40;;;;;;2117938;27;20023;-60
2021/01/30 00:53:40;;;;;;;7.55;3.85;;;11.50;68.20;;;;;;2121619;28;20250;-60
2021/01/30 00:55:01;;;;;;;6.35;3.22;;;11.50;68.20;;;;;;2114975;28;20123;-59
2021/01/30 00:56:22;;;;;;;6.03;3.90;;;11.50;68.10;;;;;;2116911;28;20019;-61
2021/01/30 00:57:43;;;;;;;5.22;3.30;;;11.40;68.00;;;;;;2121333;28;20019;-61
2021/01/30 00:59:04;;;;;;;5.25;3.72;;;11.40;67.90;;;;;;2113813;28;20027;-61
2021/01/30 01:00:28;;;;;;;4.57;3.53;;;11.40;67.80;;;;;;2121630;28;20354;-61
2021/01/30 01:01:52;;;;;;;4.78;3.40;;;11.40;67.80;;;;;;2129963;27;20033;-59
2021/01/30 01:03:13;;;;;;;7.60;3.47;;;11.40;67.70;;;;;;2123469;27;20076;-59
2021/01/30 01:04:33;;;;;;;4.85;3.42;;;11.30;67.50;;;;;;2126051;27;20019;-60
2021/01/30 01:05:54;;;;;;;4.47;3.53;;;11.30;67.40;;;;;;2121739;28;20103;-61
2021/01/30 01:07:15;;;;;;;6.07;3.58;;;11.30;67.30;;;;;;2119226;27;20032;-61
2021/01/30 01:08:36;;;;;;;4.65;4.05;;;11.30;67.30;;;;;;2124363;27;20092;-60
2021/01/30 01:09:57;;;;;;;4.32;3.92;;;11.20;67.20;;;;;;2129226;27;20141;-60
2021/01/30 01:11:18;;;;;;;4.75;4.13;;;11.20;67.20;;;;;;2117508;28;20382;-60
2021/01/30 01:12:39;;;;;;;5.07;3.38;;;11.10;67.20;;;;;;2121117;28;20059;-60
2021/01/30 01:14:00;;;;;;;6.03;3.53;;;11.10;67.20;;;;;;2122651;28;20083;-60
2021/01/30 01:15:21;;;;;;;8.57;3.90;;;11.00;67.20;;;;;;2117210;28;20108;-60
2021/01/30 01:16:43;;;;;;;5.15;3.97;;;11.00;67.30;;;;;;2123350;27;20112;-61
2021/01/30 01:18:04;;;;;;;6.63;4.65;;;11.00;67.30;;;;;;2122640;28;20028;-61
2021/01/30 01:19:25;;;;;;;5.38;3.60;;;11.00;67.90;;;;;;2124438;27;20023;-61
2021/01/30 01:20:46;;;;;;;6.35;3.90;;;10.90;67.20;;;;;;2122795;27;20095;-61
2021/01/30 01:22:07;;;;;;;5.88;3.47;;;10.90;67.20;;;;;;2113757;28;20039;-61
2021/01/30 01:23:28;;;;;;;4.50;3.50;;;10.90;67.20;;;;;;2120960;27;20045;-61
2021/01/30 01:24:49;;;;;;;5.53;3.60;;;10.80;67.30;;;;;;2120735;28;20015;-61
2021/01/30 01:26:12;;;;;;;4.60;3.45;;;10.80;68.00;;;;;;2122688;28;20054;-61
2021/01/30 01:27:33;;;;;;;5.32;3.67;;;10.80;67.20;;;;;;2127126;27;20019;-61
2021/01/30 01:28:54;;;;;;;7.18;3.67;;;10.80;67.20;;;;;;2121254;28;20019;-61
2021/01/30 01:30:17;;;;;;;4.13;3.50;;;10.80;67.20;;;;;;2116609;28;20032;-61
2021/01/30 01:31:38;;;;;;;7.53;3.35;;;10.80;67.10;;;;;;2120981;28;20023;-61
2021/01/30 01:32:59;;;;;;;5.80;3.63;;;10.70;66.90;;;;;;2129297;27;20062;-61
2021/01/30 01:34:22;;;;;;;4.43;3.53;;;10.70;66.90;;;;;;2117271;27;20019;-61
2021/01/30 01:35:43;;;;;;;7.82;3.75;;;10.70;66.90;;;;;;2121610;27;20039;-60
2021/01/30 01:37:05;;;;;;;6.30;3.70;;;10.70;66.90;;;;;;2117047;27;20638;-61
2021/01/30 01:38:26;;;;;;;5.40;3.67;;;10.70;66.90;;;;;;2128478;27;20058;-61
2021/01/30 01:39:47;;;;;;;4.72;3.40;;;10.70;66.90;;;;;;2130554;27;20113;-61
2021/01/30 01:41:10;;;;;;;4.80;3.08;;;10.60;66.90;;;;;;2117033;27;20426;-61
2021/01/30 01:42:30;;;;;;;3.92;3.38;;;10.60;66.90;;;;;;2121138;27;20408;-61
2021/01/30 01:43:52;;;;;;;4.38;3.22;;;10.60;66.90;;;;;;2121925;27;20027;-61
2021/01/30 01:45:13;;;;;;;5.22;3.45;;;10.60;66.80;;;;;;2117098;27;20031;-61
2021/01/30 01:46:38;;;;;;;5.93;3.60;;;10.60;67.00;;;;;;2128528;27;20357;-61
2021/01/30 01:48:12;;;;;;;6.18;4.35;;;10.60;67.00;;;;;;2123184;27;20031;-60
2021/01/30 01:49:37;;;;;;;8.18;5.70;;;10.60;66.90;;;;;;2121103;27;20067;-60
2021/01/30 01:51:02;;;;;;;9.77;5.47;;;10.50;66.80;;;;;;2115957;27;20061;-60
2021/01/30 01:52:32;;;;;;;13.20;7.10;;;10.50;66.70;;;;;;2122238;27;20618;-61
2021/01/30 01:53:58;;;;;;;11.65;8.55;;;10.50;66.40;;;;;;2129824;27;20023;-61
2021/01/30 01:55:21;;;;;;;12.05;7.65;;;10.50;66.10;;;;;;2118266;27;20023;-61
2021/01/30 01:56:42;;;;;;;11.15;8.18;;;10.40;65.90;;;;;;2121534;27;20468;-60
2021/01/30 01:58:05;;;;;;;15.20;8.35;;;10.40;65.80;;;;;;2116222;27;20027;-60
2021/01/30 01:59:26;;;;;;;11.80;8.57;;;10.40;65.70;;;;;;2123005;27;20027;-61
2021/01/30 02:00:49;;;;;;;11.20;8.55;;;10.30;65.40;;;;;;2125428;27;20020;-60
2021/01/30 02:02:10;;;;;;;16.63;9.32;;;10.30;65.50;;;;;;2129500;27;20019;-61
2021/01/30 02:03:33;;;;;;;14.40;8.88;;;10.20;65.40;;;;;;2122383;27;20161;-60
2021/01/30 02:05:18;;;;;;;14.73;9.20;;;10.20;65.30;;;;;;2121960;27;20015;-61
2021/01/30 02:06:42;;;;;;;14.10;8.70;;;10.10;65.10;;;;;;2121052;27;20042;-61
2021/01/30 02:08:07;;;;;;;14.60;9.27;;;10.10;65.10;;;;;;2122488;27;20465;-61
2021/01/30 02:09:28;;;;;;;12.10;8.48;;;10.10;65.10;;;;;;2126634;27;20463;-60
2021/01/30 02:10:52;;;;;;;13.48;8.52;;;10.00;65.00;;;;;;2124910;27;20038;-60
2021/01/30 02:12:14;;;;;;;14.50;9.63;;;10.00;64.90;;;;;;2124047;27;20027;-60
2021/01/30 02:13:39;;;;;;;13.10;9.50;;;9.90;65.00;;;;;;2126789;27;20046;-60
2021/01/30 02:15:00;;;;;;;12.82;8.98;;;9.90;65.00;;;;;;2130251;27;20425;-61
2021/01/30 02:16:48;;;;;;;13.57;9.57;;;9.90;65.00;;;;;;2118331;27;20031;-60
2021/01/30 02:18:16;;;;;;;13.00;9.18;;;9.80;64.90;;;;;;2118405;27;20036;-60
2021/01/30 02:20:11;;;;;;;12.27;9.02;;;9.80;65.10;;;;;;2125143;27;20066;-61
2021/01/30 02:22:16;;;;;;;12.10;8.68;;;9.70;64.90;;;;;;2120412;27;20513;-61
2021/01/30 02:24:14;;;;;;;12.27;8.32;;;9.70;65.30;;;;;;2090669;28;20137;-61
2021/01/30 02:25:40;;;;;;;14.25;9.50;;;9.70;65.20;;;;;;2106608;27;20007;-61
2021/01/30 02:27:29;;;;;;;15.40;9.70;;;9.60;65.10;;;;;;2124717;27;20023;-60
2021/01/30 02:28:50;;;;;;;15.80;10.55;;;9.60;65.10;;;;;;2122658;27;20007;-61
2021/01/30 02:30:38;;;;;;;16.58;10.00;;;9.60;65.20;;;;;;2116011;27;20031;-61
2021/01/30 02:32:18;;;;;;;15.85;9.60;;;9.50;65.20;;;;;;2123248;27;20377;-60
2021/01/30 02:34:14;;;;;;;11.20;9.05;;;9.50;65.30;;;;;;2120832;27;20028;-61
2021/01/30 02:35:56;;;;;;;11.63;8.52;;;9.40;65.30;;;;;;2120145;27;20046;-60
2021/01/30 02:37:25;;;;;;;14.68;9.10;;;9.40;65.20;;;;;;2125371;27;20377;-60
2021/01/30 02:39:12;;;;;;;13.23;8.88;;;9.40;65.30;;;;;;2121268;27;20388;-60
2021/01/30 02:40:40;;;;;;;14.38;9.10;;;9.30;65.10;;;;;;2124974;27;20061;-60
2021/01/30 02:42:15;;;;;;;11.80;8.70;;;9.30;65.20;;;;;;2123651;27;20031;-60
2021/01/30 02:43:42;;;;;;;10.70;7.88;;;9.30;65.00;;;;;;2120725;27;20019;-61
2021/01/30 02:45:09;;;;;;;9.50;8.35;;;9.30;64.90;;;;;;2122533;27;20098;-60
2021/01/30 02:46:35;;;;;;;8.57;7.50;;;9.30;64.70;;;;;;2127311;27;20032;-60
2021/01/30 02:48:11;;;;;;;7.95;6.97;;;9.20;64.50;;;;;;2122655;27;20023;-60
2021/01/30 02:49:37;;;;;;;9.00;7.35;;;9.20;64.00;;;;;;2119734;27;20027;-61
2021/01/30 02:51:02;;;;;;;8.75;7.30;;;9.20;64.10;;;;;;2122752;27;20035;-61
2021/01/30 02:52:27;;;;;;;10.10;7.47;;;9.10;64.00;;;;;;2122154;27;20127;-61
2021/01/30 02:53:53;;;;;;;10.48;7.82;;;9.10;63.90;;;;;;2123396;27;20454;-60
2021/01/30 02:55:16;;;;;;;9.65;7.38;;;9.10;63.90;;;;;;2116448;27;20062;-60
2021/01/30 02:56:39;;;;;;;9.48;7.63;;;9.00;63.80;;;;;;2121156;27;20136;-61
2021/01/30 02:58:02;;;;;;;9.85;8.32;;;9.00;63.80;;;;;;2130018;27;20584;-60
2021/01/30 02:59:24;;;;;;;10.00;7.50;;;9.00;63.90;;;;;;2118688;27;20522;-60
2021/01/30 03:00:47;;;;;;;9.18;7.65;;;8.90;63.90;;;;;;2122157;27;20458;-60
2021/01/30 03:02:08;;;;;;;9.57;7.97;;;8.90;63.90;;;;;;2116781;27;20020;-60
2021/01/30 03:03:30;;;;;;;9.30;7.90;;;8.90;64.10;;;;;;2121991;27;20051;-61
2021/01/30 03:04:55;;;;;;;8.95;7.63;;;8.80;64.10;;;;;;2121343;27;20023;-60
2021/01/30 03:06:22;;;;;;;10.18;7.60;;;8.80;64.20;;;;;;2116819;27;20461;-60
2021/01/30 03:07:55;;;;;;;9.60;8.00;;;8.80;64.30;;;;;;2113862;27;20028;-60
2021/01/30 03:09:32;;;;;;;9.32;8.02;;;8.80;64.40;;;;;;2118290;27;20032;-60
2021/01/30 03:11:03;;;;;;;10.32;7.78;;;8.70;64.40;;;;;;2130919;27;20075;-60
2021/01/30 03:12:41;;;;;;;9.00;7.82;;;8.70;64.50;;;;;;2119470;27;20030;-60
2021/01/30 03:14:13;;;;;;;8.43;7.30;;;8.70;64.50;;;;;;2117001;27;20024;-62
2021/01/30 03:16:10;;;;;;;9.05;7.50;;;8.70;64.50;;;;;;2127294;27;20014;-60
2021/01/30 03:17:31;;;;;;;7.97;6.88;;;8.70;64.50;;;;;;2119381;27;20035;-60
2021/01/30 03:19:00;;;;;;;8.30;7.30;;;8.70;64.60;;;;;;2121975;27;20728;-61
2021/01/30 03:20:21;;;;;;;9.95;7.28;;;8.70;64.60;;;;;;2117315;27;20023;-60
2021/01/30 03:21:44;;;;;;;8.25;7.30;;;8.70;64.70;;;;;;2128762;27;20062;-60
2021/01/30 03:23:06;;;;;;;11.15;6.90;;;8.70;64.70;;;;;;2128924;27;20403;-61
2021/01/30 03:24:29;;;;;;;9.15;7.32;;;8.70;64.50;;;;;;2122993;27;20023;-61
2021/01/30 03:25:52;;;;;;;9.25;7.15;;;8.70;64.30;;;;;;2122908;27;20114;-60
2021/01/30 03:27:23;;;;;;;8.70;6.82;;;8.70;64.10;;;;;;2124813;27;20035;-61
2021/01/30 03:28:45;;;;;;;;;;;8.70;63.90;;;;;;2122110;27;20098;-60
2021/01/30 03:30:09;;;;;;;6.75;6.05;;;8.70;64.10;;;;;;2114903;27;19915;-60
2021/01/30 03:31:30;;;;;;;8.93;7.32;;;8.70;64.20;;;;;;2113228;28;20093;-60
2021/01/30 03:32:51;;;;;;;7.63;6.82;;;8.70;64.10;;;;;;2127235;27;20082;-60
2021/01/30 03:34:13;;;;;;;7.72;6.90;;;8.70;64.00;;;;;;2128105;27;20083;-61
2021/01/30 03:35:34;;;;;;;8.63;6.47;;;8.60;63.80;;;;;;2121530;27;20031;-60
2021/01/30 03:36:55;;;;;;;7.20;6.60;;;8.60;63.90;;;;;;2121612;27;20106;-61
2021/01/30 03:38:16;;;;;;;8.80;6.90;;;8.60;63.90;;;;;;2117095;27;20651;-60
2021/01/30 03:39:37;;;;;;;7.03;6.43;;;8.60;63.90;;;;;;2126022;27;20042;-61
2021/01/30 03:40:59;;;;;;;7.13;6.00;;;8.60;63.90;;;;;;2123227;27;20031;-61
2021/01/30 03:42:20;;;;;;;7.75;6.65;;;8.60;64.10;;;;;;2118877;27;20366;-60
2021/01/30 03:43:40;;;;;;;7.05;6.32;;;8.60;64.10;;;;;;2122002;27;20070;-61
2021/01/30 03:45:05;;;;;;;7.38;6.68;;;8.50;64.00;;;;;;2129603;27;20027;-60
2021/01/30 03:46:26;;;;;;;7.50;6.80;;;8.50;63.90;;;;;;2118710;27;20101;-61
2021/01/30 03:47:47;;;;;;;8.35;7.55;;;8.50;63.80;;;;;;2123305;27;20424;-61
2021/01/30 03:49:08;;;;;;;8.18;7.38;;;8.50;63.80;;;;;;2115774;27;20119;-60
2021/01/30 03:50:29;;;;;;;9.27;8.38;;;8.50;63.80;;;;;;2121486;27;20023;-60
2021/01/30 03:51:50;;;;;;;8.48;7.78;;;8.50;63.80;;;;;;2121282;27;20081;-61
2021/01/30 03:53:11;;;;;;;11.93;8.60;;;8.50;63.70;;;;;;2115101;27;20042;-61
2021/01/30 03:54:32;;;;;;;9.43;8.35;;;8.50;63.70;;;;;;2122159;27;20038;-60
2021/01/30 03:55:53;;;;;;;9.40;8.45;;;8.40;63.60;;;;;;2129626;27;20011;-60
2021/01/30 03:57:14;;;;;;;9.52;7.60;;;8.40;63.60;;;;;;2121616;27;20366;-60
2021/01/30 03:58:37;;;;;;;8.88;8.07;;;8.40;63.50;;;;;;2121402;27;20063;-60
2021/01/30 03:59:58;;;;;;;8.40;7.60;;;8.40;63.40;;;;;;2122485;27;20085;-60
2021/01/30 04:01:19;;;;;;;9.35;8.35;;;8.40;63.50;;;;;;2119608;27;20038;-60
2021/01/30 04:02:41;;;;;;;8.57;7.78;;;8.40;63.60;;;;;;2121690;27;20027;-60
2021/01/30 04:04:02;;;;;;;12.10;8.10;;;8.40;63.60;;;;;;2116581;27;20043;-60
2021/01/30 04:05:26;;;;;;;9.73;8.43;;;8.30;63.60;;;;;;2121259;27;20027;-61
2021/01/30 04:06:51;;;;;;;10.18;8.65;;;8.40;63.60;;;;;;2122191;27;20037;-60
2021/01/30 04:08:11;;;;;;;9.82;8.73;;;8.30;63.60;;;;;;2116086;27;20044;-60
2021/01/30 04:09:32;;;;;;;11.10;9.68;;;8.30;63.60;;;;;;2121931;27;20038;-61
2021/01/30 04:10:53;;;;;;;12.43;10.20;;;8.30;63.60;;;;;;2121788;27;20035;-60
2021/01/30 04:12:14;;;;;;;12.30;10.88;;;8.30;63.60;;;;;;2116567;27;20031;-61
2021/01/30 04:13:35;;;;;;;12.65;10.63;;;8.30;63.50;;;;;;2122846;27;20062;-60
2021/01/30 04:14:56;;;;;;;13.98;11.18;;;8.30;63.50;;;;;;2129921;27;20049;-60
2021/01/30 04:16:17;;;;;;;14.80;12.05;;;8.30;63.40;;;;;;2116842;27;20023;-60
2021/01/30 04:17:38;;;;;;;15.70;11.93;;;8.30;63.30;;;;;;2119684;27;20019;-61
2021/01/30 04:18:59;;;;;;;14.13;11.57;;;8.30;63.20;;;;;;2122135;27;20058;-60
2021/01/30 04:20:20;;;;;;;15.90;12.43;;;8.30;63.10;;;;;;2123770;27;20025;-61
2021/01/30 04:21:41;;;;;;;17.30;12.43;;;8.30;63.10;;;;;;2124313;27;20037;-61
2021/01/30 04:23:03;;;;;;;15.68;11.77;;;8.30;63.10;;;;;;2115154;28;20076;-61
2021/01/30 04:24:24;;;;;;;15.73;12.77;;;8.20;62.90;;;;;;2124711;27;20022;-61
2021/01/30 04:25:44;;;;;;;16.65;12.70;;;8.20;62.90;;;;;;2125381;27;20092;-61
2021/01/30 04:27:05;;;;;;;14.73;12.02;;;8.20;62.90;;;;;;2118562;27;20361;-61
2021/01/30 04:28:26;;;;;;;13.80;11.80;;;8.20;62.90;;;;;;2123261;27;20066;-60
2021/01/30 04:29:47;;;;;;;16.77;12.77;;;8.20;62.90;;;;;;2129381;27;20505;-60
2021/01/30 04:31:09;;;;;;;16.25;13.20;;;8.20;62.90;;;;;;2116049;27;20439;-60
2021/01/30 04:32:29;;;;;;;16.13;13.63;;;8.20;62.90;;;;;;2125388;27;20038;-60
2021/01/30 04:33:50;;;;;;;15.68;13.45;;;8.10;62.70;;;;;;2124391;27;20062;-61
2021/01/30 04:35:13;;;;;;;16.00;13.48;;;8.10;62.70;;;;;;2115746;28;20595;-61
2021/01/30 04:36:33;;;;;;;16.67;13.93;;;8.10;62.70;;;;;;2126595;27;20027;-61
2021/01/30 04:37:55;;;;;;;17.17;13.93;;;8.10;62.70;;;;;;2121403;27;20023;-61
2021/01/30 04:39:16;;;;;;;18.42;14.02;;;8.00;62.70;;;;;;2116491;27;20535;-61
2021/01/30 04:40:43;;;;;;;18.20;14.68;;;8.00;62.80;;;;;;2121822;27;20031;-60
2021/01/30 04:42:28;;;;;;;15.48;13.40;;;8.00;62.70;;;;;;2116075;28;20024;-61
2021/01/30 04:44:07;;;;;;;15.82;12.90;;;8.00;62.70;;;;;;2130082;27;20033;-61
2021/01/30 04:45:52;;;;;;;17.02;13.30;;;8.00;62.70;;;;;;2118066;27;20054;-61
2021/01/30 04:47:16;;;;;;;17.55;13.77;;;8.00;62.70;;;;;;2121734;27;20039;-60
2021/01/30 04:48:48;;;;;;;17.92;13.93;;;8.00;62.60;;;;;;2125662;27;20039;-60
2021/01/30 04:50:26;;;;;;;16.40;13.40;;;7.90;62.40;;;;;;2116349;28;20035;-60
2021/01/30 04:51:49;;;;;;;18.23;14.38;;;7.90;62.60;;;;;;2123209;27;20505;-60
2021/01/30 04:53:39;;;;;;;19.05;14.75;;;7.90;62.60;;;;;;2116810;28;20036;-60
2021/01/30 04:55:27;;;;;;;19.58;14.02;;;7.90;62.50;;;;;;2119946;28;20035;-60
2021/01/30 04:57:09;;;;;;;18.95;14.90;;;7.90;62.60;;;;;;2123643;27;20031;-60
2021/01/30 04:58:32;;;;;;;17.52;15.00;;;7.90;62.60;;;;;;2118539;28;20339;-61
2021/01/30 05:00:21;;;;;;;19.42;15.50;;;7.90;62.70;;;;;;2122074;28;20023;-60
2021/01/30 05:02:20;;;;;;;17.75;14.45;;;7.90;62.60;;;;;;2120193;28;20023;-60
2021/01/30 05:03:58;;;;;;;20.55;15.07;;;7.80;62.80;;;;;;2110436;28;20062;-60
2021/01/30 05:05:22;;;;;;;17.60;14.75;;;7.80;62.90;;;;;;2117565;27;20575;-60
2021/01/30 05:06:49;;;;;;;19.90;14.75;;;7.80;62.90;;;;;;2127630;27;20042;-60
2021/01/30 05:08:24;;;;;;;18.90;14.52;;;7.80;62.90;;;;;;2119148;28;20084;-60
2021/01/30 05:10:11;;;;;;;16.77;13.98;;;7.80;62.70;;;;;;2117176;27;20081;-60
2021/01/30 05:11:33;;;;;;;18.63;13.73;;;7.80;62.60;;;;;;2121286;27;20034;-61
2021/01/30 05:13:00;;;;;;;18.17;14.40;;;7.80;62.60;;;;;;2123386;27;20168;-60
2021/01/30 05:14:25;;;;;;;17.33;15.00;;;7.80;62.40;;;;;;2119329;27;20024;-60
2021/01/30 05:15:51;;;;;;;17.95;14.40;;;7.70;62.30;;;;;;2124048;27;20038;-60
2021/01/30 05:17:22;;;;;;;17.58;14.45;;;7.70;62.10;;;;;;2111067;27;20050;-60
2021/01/30 05:18:50;;;;;;;17.23;13.85;;;7.70;62.10;;;;;;2124615;27;20029;-60
2021/01/30 05:20:11;;;;;;;17.73;14.65;;;7.70;62.10;;;;;;2126346;27;20023;-60
2021/01/30 05:21:43;;;;;;;15.77;12.95;;;7.70;62.20;;;;;;2126887;27;20019;-61
2021/01/30 05:23:06;;;;;;;16.23;13.10;;;7.70;62.10;;;;;;2109140;28;20032;-61
2021/01/30 05:24:29;;;;;;;16.58;13.20;;;7.70;62.30;;;;;;2124734;27;20027;-61
2021/01/30 05:26:04;;;;;;;19.30;14.27;;;7.70;62.20;;;;;;2124293;27;20023;-60
2021/01/30 05:27:50;;;;;;;18.17;14.25;;;7.70;62.10;;;;;;2119635;27;20050;-61
2021/01/30 05:29:19;;;;;;;15.65;13.15;;;7.60;61.90;;;;;;2117420;27;20619;-61
2021/01/30 05:31:07;;;;;;;15.32;13.55;;;7.70;62.10;;;;;;2122978;27;20023;-60
2021/01/30 05:32:53;;;;;;;14.85;12.77;;;7.60;61.90;;;;;;2118872;27;20034;-61
2021/01/30 05:34:23;;;;;;;14.32;12.82;;;7.60;61.90;;;;;;2118180;27;20114;-60
2021/01/30 05:36:10;;;;;;;15.10;12.95;;;7.60;62.10;;;;;;2123778;27;20102;-61
2021/01/30 05:37:39;;;;;;;16.52;13.93;;;7.60;61.90;;;;;;2119624;27;20061;-60
2021/01/30 05:39:44;;;;;;;15.77;14.07;;;7.60;62.10;;;;;;2130007;27;20530;-60
2021/01/30 05:41:28;;;;;;;17.15;13.73;;;7.60;62.10;;;;;;2116176;27;20469;-60
2021/01/30 05:43:10;;;;;;;15.75;13.48;;;7.60;62.20;;;;;;2129553;27;20031;-60
2021/01/30 05:44:47;;;;;;;16.42;14.43;;;7.60;62.10;;;;;;2120479;27;20525;-61
2021/01/30 05:46:20;;;;;;;15.68;13.85;;;7.60;62.00;;;;;;2116773;27;20027;-61
2021/01/30 05:47:42;;;;;;;19.65;15.02;;;7.60;62.10;;;;;;2120675;27;20467;-60
2021/01/30 05:49:11;;;;;;;18.17;14.40;;;7.60;62.10;;;;;;2128320;27;20114;-60
2021/01/30 05:50:40;;;;;;;19.15;15.73;;;7.60;62.00;;;;;;2123147;27;20068;-60
2021/01/30 05:52:13;;;;;;;18.88;15.73;;;7.60;62.00;;;;;;2115542;27;20106;-60
2021/01/30 05:53:34;;;;;;;19.15;15.82;;;7.60;62.10;;;;;;2119397;27;20023;-60
2021/01/30 05:54:56;;;;;;;17.95;15.23;;;7.60;62.20;;;;;;2121418;27;20064;-60
2021/01/30 05:56:17;;;;;;;18.63;15.32;;;7.60;62.10;;;;;;2117212;27;20027;-61
2021/01/30 05:57:38;;;;;;;18.88;15.25;;;7.60;62.20;;;;;;2123318;27;20031;-60
2021/01/30 05:59:00;;;;;;;18.20;15.73;;;7.60;62.30;;;;;;2115152;27;20474;-60
2021/01/30 06:00:21;;;;;;;20.42;16.10;;;7.60;62.30;;;;;;2118504;27;20087;-60
2021/01/30 06:01:42;;;;;;;17.35;15.50;;;7.60;62.30;;;;;;2122606;27;20049;-60
2021/01/30 06:03:04;;;;;;;19.77;15.60;;;7.60;62.40;;;;;;2122159;27;20450;-60
2021/01/30 06:04:27;;;;;;;18.38;15.75;;;7.60;62.20;;;;;;2122057;27;20066;-60
2021/01/30 06:05:50;;;;;;;19.67;16.48;;;7.60;62.20;;;;;;2122320;27;20122;-61
2021/01/30 06:07:22;;;;;;;19.45;16.02;;;7.60;62.30;;;;;;2117118;27;20027;-61
2021/01/30 06:08:55;;;;;;;17.58;15.45;;;7.60;62.10;;;;;;2123614;27;20362;-60
2021/01/30 06:10:28;;;;;;;20.40;16.13;;;7.60;62.10;;;;;;2117810;27;20051;-61
2021/01/30 06:11:50;;;;;;;19.73;15.85;;;7.60;62.10;;;;;;2123292;27;20023;-61
2021/01/30 06:13:20;;;;;;;23.67;17.70;;;7.60;62.20;;;;;;2117723;27;20042;-60
2021/01/30 06:14:40;;;;;;;21.48;17.10;;;7.60;62.20;;;;;;2122840;27;20424;-60
2021/01/30 06:16:02;;;;;;;22.77;18.40;;;7.60;62.30;;;;;;2115378;27;20032;-60
2021/01/30 06:17:23;;;;;;;21.80;17.85;;;7.60;62.10;;;;;;2118773;27;20031;-60
2021/01/30 06:18:44;;;;;;;22.48;18.00;;;7.60;62.10;;;;;;2120152;27;20019;-60
2021/01/30 06:20:20;;;;;;;22.27;17.75;;;7.60;62.10;;;;;;2114036;27;20038;-60
2021/01/30 06:21:43;;;;;;;22.08;18.52;;;7.60;62.00;;;;;;2123726;27;20027;-60
2021/01/30 06:23:04;;;;;;;23.05;18.60;;;7.60;62.10;;;;;;2120336;27;20093;-60
2021/01/30 06:24:29;;;;;;;21.95;18.10;;;7.60;62.10;;;;;;2122762;27;20031;-60
2021/01/30 06:25:50;;;;;;;21.35;18.25;;;7.60;61.80;;;;;;2130117;27;20027;-60
2021/01/30 06:27:30;;;;;;;23.38;18.65;;;7.60;61.80;;;;;;2130810;27;20095;-60
2021/01/30 06:29:01;;;;;;;23.10;17.70;;;7.60;61.60;;;;;;2128656;27;20011;-60
2021/01/30 06:30:38;;;;;;;21.65;18.17;;;7.70;61.80;;;;;;2119149;27;20129;-60
2021/01/30 06:32:18;;;;;;;21.40;17.33;;;7.60;61.70;;;;;;2115880;27;20141;-60
2021/01/30 06:33:46;;;;;;;24.25;18.02;;;7.60;61.60;;;;;;2124999;27;20019;-60
2021/01/30 06:35:19;;;;;;;19.67;16.75;;;7.60;61.70;;;;;;2116471;27;20020;-61
2021/01/30 06:36:48;;;;;;;21.08;17.77;;;7.60;61.60;;;;;;2113571;28;20084;-61
2021/01/30 06:38:30;;;;;;;20.00;16.63;;;7.50;61.60;;;;;;2115247;27;20043;-60
2021/01/30 06:40:06;;;;;;;20.40;16.52;;;7.50;61.70;;;;;;2123153;27;20023;-61
2021/01/30 06:41:31;;;;;;;21.25;17.80;;;7.50;61.70;;;;;;2118126;27;20030;-60
2021/01/30 06:43:02;;;;;;;20.25;17.30;;;7.50;61.80;;;;;;2123408;27;20042;-61
2021/01/30 06:44:27;;;;;;;19.30;16.20;;;7.50;61.80;;;;;;2120035;27;20019;-60
2021/01/30 06:45:49;;;;;;;19.13;16.30;;;7.50;61.70;;;;;;2129605;27;20099;-60
2021/01/30 06:47:10;;;;;;;20.33;16.13;;;7.50;61.70;;;;;;2128478;27;20027;-61
2021/01/30 06:48:36;;;;;;;18.80;16.00;;;7.50;61.70;;;;;;2120503;27;20106;-60
2021/01/30 06:49:57;;;;;;;19.90;17.40;;;7.50;61.60;;;;;;2122801;27;20027;-60
2021/01/30 06:51:24;;;;;;;21.15;16.50;;;7.50;61.70;;;;;;2121574;27;20470;-60
2021/01/30 06:52:45;;;;;;;19.33;16.35;;;7.50;61.70;;;;;;2130332;27;20023;-60
2021/01/30 06:54:27;;;;;;;16.88;14.30;;;7.50;61.80;;;;;;2116458;27;20090;-60
2021/01/30 06:55:49;;;;;;;17.30;14.77;;;7.50;61.20;;;;;;2128981;27;20031;-60
2021/01/30 06:57:27;;;;;;;16.92;14.65;;;7.50;61.50;;;;;;2129654;27;20058;-60
2021/01/30 06:58:50;;;;;;;14.52;12.90;;;7.40;61.20;;;;;;2122613;27;20020;-60
2021/01/30 07:00:17;;;;;;;15.43;13.82;;;7.50;61.50;;;;;;2117120;27;20043;-60
2021/01/30 07:01:44;;;;;;;15.68;13.60;;;7.40;61.20;;;;;;2121867;27;20039;-60
2021/01/30 07:03:30;;;;;;;17.15;14.52;;;7.40;61.30;;;;;;2120559;27;20122;-60
2021/01/30 07:05:01;;;;;;;16.40;14.07;;;7.40;61.40;;;;;;2122583;27;20019;-60
2021/01/30 07:06:35;;;;;;;15.52;13.88;;;7.40;61.30;;;;;;2125938;27;20429;-60
2021/01/30 07:08:22;;;;;;;15.88;13.82;;;7.40;61.20;;;;;;2122616;27;20442;-60
2021/01/30 07:10:13;;;;;;;15.23;13.57;;;7.40;61.20;;;;;;2121536;27;20493;-61
2021/01/30 07:11:46;;;;;;;16.70;14.52;;;7.40;61.00;;;;;;2120278;27;20027;-60
2021/01/30 07:13:29;;;;;;;15.52;13.43;;;7.40;61.10;;;;;;2114617;27;20024;-60
2021/01/30 07:15:11;;;;;;;16.70;14.23;;;7.40;61.00;;;;;;2122121;27;20080;-60
2021/01/30 07:16:40;;;;;;;18.10;14.95;;;7.40;61.00;;;;;;2124784;27;20031;-60
2021/01/30 07:18:27;;;;;;;17.70;15.65;;;7.40;61.10;;;;;;2130869;27;20514;-60
2021/01/30 07:20:05;;;;;;;17.33;14.38;;;7.30;61.00;;;;;;2122533;27;20030;-61
2021/01/30 07:21:34;;;;;;;18.75;15.18;;;7.30;61.10;;;;;;2117669;27;20023;-60
2021/01/30 07:23:11;;;;;;;17.10;14.70;;;7.30;61.20;;;;;;2122364;27;20035;-60
2021/01/30 07:24:37;;;;;;;16.88;14.45;;;7.30;61.20;;;;;;2122350;27;20027;-60
2021/01/30 07:26:15;;;;;;;16.92;14.77;;;7.20;61.30;;;;;;2121773;27;20027;-60
2021/01/30 07:27:46;;;;;;;18.42;15.10;;;7.20;61.50;;;;;;2120419;27;20489;-60
2021/01/30 07:29:16;;;;;;;17.10;14.75;;;7.20;61.50;;;;;;2115736;27;20153;-60
2021/01/30 07:30:45;;;;;;;16.85;14.13;;;7.10;61.50;;;;;;2127354;27;20084;-60